M I D A S
Marine Information and Data Acquisition System
Tripno 817 of the Zeeleeuw from 2004-12-10 08:16:39 to 2004-12-10 13:07:11
Back to CruiseResearch ActivitiesStationsMapUnderway DataData graphs

EquipmentUnitsComments
TimeDGPSUTC
LatitudeDGPSDM.mWGS84
LongitudeDGPSDM.mWGS84
SpeedMeteo Stationm/sRelative wind speed
DirectionMeteo StationdegRelative wind direction
TemperatureMeteo Stationdeg CelciusAir temperature
PressureMeteo StationPaAtmospheric pressure
HumidityMeteo Station%Relative humidity
Missing or incorrect values are displayed as -999
Metereological data collected by the RV Zeeleeuw from 2004-12-10 07:56:23 to 2004-12-10 12:17:53
Time Latitude Longitude Speed Direction Temperature Pressure Humidity
2004-12-10 07:57 51°13.575 2°56.127 -999 -999 -999 -999 -999
2004-12-10 07:58 51°13.557 2°56.164 -999 -999 -999 -999 -999
2004-12-10 08:00 51°13.56 2°56.159 -999 -999 -999 -999 -999
2004-12-10 08:01 51°13.581 2°56.095 -999 -999 -999 -999 -999
2004-12-10 08:02 51°13.593 2°56.076 -999 -999 -999 -999 -999
2004-12-10 08:04 51°13.596 2°56.104 -999 -999 -999 -999 -999
2004-12-10 08:05 51°13.597 2°56.107 -999 -999 -999 -999 -999
2004-12-10 08:06 51°13.598 2°56.106 -999 -999 -999 -999 -999
2004-12-10 08:07 51°13.598 2°56.106 -999 -999 -999 -999 -999
2004-12-10 08:09 51°13.598 2°56.107 -999 -999 -999 -999 -999
2004-12-10 08:10 51°13.599 2°56.108 -999 -999 -999 -999 -999
2004-12-10 08:11 51°13.599 2°56.108 -999 -999 -999 -999 -999
2004-12-10 08:12 51°13.599 2°56.107 -999 -999 -999 -999 -999
2004-12-10 08:14 51°13.598 2°56.107 -999 -999 -999 -999 -999
2004-12-10 08:15 51°13.598 2°56.107 -999 -999 -999 -999 -999
2004-12-10 08:17 51°13.597 2°56.106 -999 -999 -999 -999 -999
2004-12-10 08:18 51°13.597 2°56.106 -999 -999 -999 -999 -999
2004-12-10 08:19 51°13.603 2°56.077 -999 -999 -999 -999 -999
2004-12-10 08:20 51°13.626 2°55.988 -999 -999 -999 -999 -999
2004-12-10 08:21 51°13.668 2°55.871 -999 -999 -999 -999 -999
2004-12-10 08:23 51°13.706 2°55.74 -999 -999 -999 -999 -999
2004-12-10 08:24 51°13.707 2°55.746 -999 -999 -999 -999 -999
2004-12-10 08:25 51°13.73 2°55.74 -999 -999 -999 -999 -999
2004-12-10 08:26 51°13.815 2°55.649 -999 -999 -999 -999 -999
2004-12-10 08:28 51°13.98 2°55.521 -999 -999 -999 -999 -999
2004-12-10 08:29 51°14.127 2°55.413 -999 -999 -999 -999 -999
2004-12-10 08:30 51°14.26 2°55.263 -999 -999 -999 -999 -999
2004-12-10 08:31 51°14.387 2°54.96 -999 -999 -999 -999 -999
2004-12-10 08:32 51°14.408 2°54.517 -999 -999 -999 -999 -999
2004-12-10 08:33 51°14.323 2°54.164 -999 -999 -999 -999 -999
2004-12-10 08:35 51°14.191 2°53.803 -999 -999 -999 -999 -999
2004-12-10 09:13 51°10.496 2°42.402 11.5 332 -999 -999 -999